createdAt,value
2018-02-27T00:02:07.437Z,43.10
2018-02-27T00:04:35.023Z,43.50
2018-02-27T00:07:02.547Z,43.80
2018-02-27T00:09:30.827Z,44.10
2018-02-27T00:11:59.128Z,44.10
2018-02-27T00:14:26.675Z,44.10
2018-02-27T00:16:54.193Z,43.90
2018-02-27T00:19:21.744Z,43.50
2018-02-27T00:21:49.270Z,43.30
2018-02-27T00:24:16.768Z,43.10
2018-02-27T00:26:44.302Z,43.20
2018-02-27T00:29:11.811Z,43.60
2018-02-27T00:31:39.349Z,43.80
2018-02-27T00:34:06.885Z,44.40
2018-02-27T00:36:34.392Z,44.50
2018-02-27T00:39:01.924Z,44.40
2018-02-27T00:41:29.481Z,44.70
2018-02-27T00:43:57.009Z,45.00
2018-02-27T00:46:24.531Z,45.40
2018-02-27T00:48:52.860Z,45.40
2018-02-27T00:51:20.371Z,45.30
2018-02-27T00:53:48.648Z,45.50
2018-02-27T00:56:16.170Z,45.40
2018-02-27T00:58:43.675Z,45.30
2018-02-27T01:01:11.952Z,45.00
2018-02-27T01:03:39.542Z,45.00
2018-02-27T01:06:07.165Z,44.90
2018-02-27T01:08:34.674Z,44.80
2018-02-27T01:11:02.958Z,45.40
2018-02-27T01:13:30.491Z,45.40
2018-02-27T01:15:58.016Z,45.50
2018-02-27T01:18:25.585Z,45.80
2018-02-27T01:20:53.871Z,45.40
2018-02-27T01:23:21.690Z,45.40
2018-02-27T01:25:49.209Z,45.30
2018-02-27T01:28:16.736Z,45.40
2018-02-27T01:30:44.290Z,45.50
2018-02-27T01:33:12.584Z,45.10
2018-02-27T01:35:40.867Z,45.30
2018-02-27T01:38:08.467Z,45.30
2018-02-27T01:40:36.007Z,44.90
2018-02-27T01:43:03.532Z,44.90
2018-02-27T01:45:31.046Z,45.10
2018-02-27T01:47:58.560Z,45.40
2018-02-27T01:50:26.856Z,45.20
2018-02-27T01:52:54.386Z,45.20
2018-02-27T01:55:21.895Z,45.30
2018-02-27T01:57:49.404Z,45.40
2018-02-27T02:00:17.679Z,45.60
2018-02-27T02:02:45.966Z,45.30
2018-02-27T02:05:14.327Z,45.40
2018-02-27T02:07:41.869Z,45.30
2018-02-27T02:10:09.432Z,45.20
2018-02-27T02:12:36.951Z,45.10
2018-02-27T02:15:04.465Z,45.30
2018-02-27T02:17:31.970Z,45.40
2018-02-27T02:19:59.514Z,45.10
2018-02-27T02:22:27.037Z,45.50
2018-02-27T02:24:55.348Z,45.90
2018-02-27T02:27:22.868Z,45.60
2018-02-27T02:29:50.404Z,45.50
2018-02-27T02:32:17.912Z,45.30
2018-02-27T02:34:46.185Z,45.70
2018-02-27T02:37:14.487Z,45.70
2018-02-27T02:39:41.994Z,45.70
2018-02-27T02:42:24.403Z,45.60
2018-02-27T02:44:51.947Z,45.70
2018-02-27T02:47:19.479Z,45.00
2018-02-27T02:49:47.005Z,45.30
2018-02-27T02:52:14.518Z,45.10
2018-02-27T02:54:42.061Z,45.20
2018-02-27T02:57:09.591Z,45.50
2018-02-27T02:59:37.122Z,45.60
2018-02-27T03:02:04.633Z,45.90
2018-02-27T03:04:32.140Z,45.40
2018-02-27T03:06:59.743Z,45.40
2018-02-27T03:09:27.321Z,45.30
2018-02-27T03:11:54.837Z,45.60
2018-02-27T03:14:22.354Z,45.60
2018-02-27T03:16:49.870Z,45.60
2018-02-27T03:19:17.382Z,45.50
2018-02-27T03:21:44.910Z,45.20
2018-02-27T03:24:12.630Z,45.10
2018-02-27T03:26:40.158Z,45.00
2018-02-27T03:29:07.668Z,45.00
2018-02-27T03:31:35.955Z,44.90
2018-02-27T03:34:04.254Z,45.00
2018-02-27T03:36:31.751Z,45.00
2018-02-27T03:38:59.365Z,45.40
2018-02-27T03:41:26.868Z,45.60
2018-02-27T03:43:54.412Z,45.50
2018-02-27T03:46:22.710Z,46.00
2018-02-27T03:48:50.221Z,45.70
2018-02-27T03:51:17.748Z,45.60
2018-02-27T03:53:45.265Z,45.70
2018-02-27T03:56:12.784Z,45.90
2018-02-27T03:58:41.063Z,45.80
2018-02-27T04:01:09.337Z,46.10
2018-02-27T04:03:36.878Z,46.60
2018-02-27T04:06:04.402Z,46.00
2018-02-27T04:08:31.916Z,45.90
2018-02-27T04:11:00.196Z,45.10
2018-02-27T04:13:28.494Z,45.00
2018-02-27T04:15:56.076Z,45.00
2018-02-27T04:18:23.585Z,45.00
2018-02-27T04:20:51.903Z,45.10
2018-02-27T04:23:19.415Z,45.10
2018-02-27T04:25:46.928Z,45.20
2018-02-27T04:28:14.436Z,45.10
2018-02-27T04:30:42.731Z,45.50
2018-02-27T04:33:10.287Z,45.40
2018-02-27T04:35:37.804Z,45.60
2018-02-27T04:38:05.310Z,45.40
2018-02-27T04:40:32.850Z,45.60
2018-02-27T04:43:00.369Z,45.80
2018-02-27T04:45:28.649Z,45.40
2018-02-27T04:47:56.162Z,45.30
2018-02-27T04:50:23.694Z,45.10
2018-02-27T04:52:51.204Z,45.50
2018-02-27T04:55:18.715Z,45.70
2018-02-27T04:57:46.223Z,45.90
2018-02-27T05:00:13.762Z,46.20
2018-02-27T05:02:41.294Z,46.80
2018-02-27T05:05:09.703Z,47.30
2018-02-27T05:07:37.302Z,47.20
2018-02-27T05:10:04.861Z,47.30
2018-02-27T05:12:32.381Z,47.70
2018-02-27T05:14:59.936Z,48.10
2018-02-27T05:17:27.467Z,48.20
2018-02-27T05:19:55.798Z,47.70
2018-02-27T05:22:23.358Z,47.70
2018-02-27T05:24:50.884Z,47.60
2018-02-27T05:27:19.156Z,47.50
2018-02-27T05:29:47.451Z,47.40
2018-02-27T05:32:14.963Z,47.40
2018-02-27T05:34:42.539Z,47.10
2018-02-27T05:37:10.021Z,47.20
2018-02-27T05:39:37.553Z,47.00
2018-02-27T05:42:05.068Z,46.80
2018-02-27T05:44:32.595Z,47.00
2018-02-27T05:47:00.872Z,46.80
2018-02-27T05:49:29.185Z,46.80
2018-02-27T05:51:56.707Z,46.80
2018-02-27T05:54:24.266Z,47.00
2018-02-27T05:56:52.547Z,47.70
2018-02-27T05:59:20.827Z,48.10
2018-02-27T06:01:48.347Z,48.10
2018-02-27T06:04:15.862Z,48.20
2018-02-27T06:06:43.393Z,48.10
2018-02-27T06:09:11.669Z,47.80
2018-02-27T06:11:39.976Z,47.60
2018-02-27T06:14:07.499Z,47.60
2018-02-27T06:16:35.014Z,47.40
2018-02-27T06:19:02.558Z,46.80
2018-02-27T06:21:30.091Z,46.50
2018-02-27T06:23:58.371Z,46.80
2018-02-27T06:26:25.901Z,46.80
2018-02-27T06:28:53.418Z,46.60
2018-02-27T06:31:20.982Z,46.80
2018-02-27T06:33:48.489Z,46.50
2018-02-27T06:36:16.084Z,46.20
2018-02-27T06:38:43.624Z,46.50
2018-02-27T06:41:11.181Z,46.00
2018-02-27T06:43:38.744Z,46.30
2018-02-27T06:46:06.306Z,46.70
2018-02-27T06:48:33.841Z,46.90
2018-02-27T06:51:01.366Z,47.10
2018-02-27T06:53:28.933Z,47.00
2018-02-27T06:55:56.486Z,47.20
2018-02-27T06:58:24.009Z,46.80
2018-02-27T07:00:51.543Z,46.60
2018-02-27T07:03:19.107Z,46.70
2018-02-27T07:05:46.671Z,47.10
2018-02-27T07:08:14.960Z,47.30
2018-02-27T07:10:43.278Z,47.20
2018-02-27T07:13:11.908Z,47.20
2018-02-27T07:15:42.690Z,47.20
2018-02-27T07:18:10.407Z,47.10
2018-02-27T07:20:37.996Z,47.40
2018-02-27T07:23:05.553Z,47.20
2018-02-27T07:25:33.210Z,47.10
2018-02-27T07:28:00.736Z,46.60
2018-02-27T07:30:28.277Z,46.80
2018-02-27T07:32:55.844Z,46.00
2018-02-27T07:35:23.442Z,46.20
2018-02-27T07:37:50.967Z,46.10
2018-02-27T07:40:18.957Z,46.50
2018-02-27T07:42:46.569Z,45.70
2018-02-27T07:45:14.092Z,45.30
2018-02-27T07:47:41.630Z,45.20
2018-02-27T07:50:09.189Z,45.30
2018-02-27T07:52:36.756Z,45.40
2018-02-27T07:55:04.306Z,45.80
2018-02-27T07:57:31.836Z,45.80
2018-02-27T07:59:59.385Z,45.60
2018-02-27T08:02:26.904Z,45.50
2018-02-27T08:04:54.473Z,45.50
2018-02-27T08:07:22.762Z,45.00
2018-02-27T08:09:51.031Z,45.10
2018-02-27T08:12:19.307Z,45.20
2018-02-27T08:14:47.656Z,45.60
2018-02-27T08:17:15.544Z,45.50
2018-02-27T08:19:43.067Z,45.80
2018-02-27T08:22:10.604Z,45.40
2018-02-27T08:24:38.127Z,45.60
2018-02-27T08:27:05.671Z,45.00
2018-02-27T08:29:33.240Z,44.80
2018-02-27T08:32:00.846Z,45.00
2018-02-27T08:34:28.348Z,45.00
2018-02-27T08:36:55.894Z,44.00
2018-02-27T08:39:23.444Z,43.60
2018-02-27T08:41:50.960Z,42.80
2018-02-27T08:44:18.508Z,42.80
2018-02-27T08:46:46.043Z,41.50
2018-02-27T08:49:13.571Z,41.80
2018-02-27T08:51:41.080Z,41.50
2018-02-27T08:54:09.392Z,40.60
2018-02-27T08:56:37.036Z,40.40
2018-02-27T08:59:05.321Z,40.60
2018-02-27T09:01:32.850Z,40.60
2018-02-27T09:04:00.379Z,41.10
2018-02-27T09:06:27.911Z,40.70
2018-02-27T09:08:55.423Z,40.60
2018-02-27T09:11:23.033Z,40.50
2018-02-27T09:13:50.555Z,40.30
2018-02-27T09:16:18.091Z,40.80
2018-02-27T09:18:47.189Z,39.60
2018-02-27T09:21:14.714Z,39.60
2018-02-27T09:23:42.243Z,39.40
2018-02-27T09:26:09.762Z,39.00
2018-02-27T09:28:37.294Z,39.50
2018-02-27T09:31:04.802Z,39.40
2018-02-27T09:33:32.338Z,39.80
2018-02-27T09:35:59.866Z,39.80
2018-02-27T09:38:27.379Z,40.10
2018-02-27T09:40:54.934Z,39.90
2018-02-27T09:43:22.449Z,39.50
2018-02-27T09:45:50.040Z,39.00
2018-02-27T09:48:17.550Z,38.70
2018-02-27T09:50:45.163Z,38.80
2018-02-27T09:53:12.685Z,39.20
2018-02-27T09:55:40.188Z,38.40
2018-02-27T09:58:07.701Z,37.70
2018-02-27T10:00:35.209Z,37.50
2018-02-27T10:03:02.740Z,37.30
2018-02-27T10:05:30.314Z,37.30
2018-02-27T10:07:57.819Z,36.80
2018-02-27T10:10:25.363Z,36.90
2018-02-27T10:12:52.962Z,37.60
2018-02-27T10:15:20.506Z,37.30
2018-02-27T10:17:48.059Z,37.30
2018-02-27T10:20:15.607Z,37.00
2018-02-27T10:22:43.175Z,36.40
2018-02-27T10:25:11.478Z,36.60
2018-02-27T10:27:39.071Z,36.50
2018-02-27T10:30:06.772Z,36.50
2018-02-27T10:32:35.145Z,35.40
2018-02-27T10:35:02.680Z,35.40
2018-02-27T10:37:30.253Z,34.50
2018-02-27T10:39:57.790Z,32.70
2018-02-27T10:42:25.318Z,31.20
2018-02-27T10:44:52.839Z,29.10
2018-02-27T10:47:20.403Z,27.30
2018-02-27T10:49:48.736Z,26.40
2018-02-27T10:52:16.326Z,26.30
2018-02-27T10:54:43.849Z,25.30
2018-02-27T10:57:11.383Z,25.00
2018-02-27T10:59:38.912Z,24.40
2018-02-27T11:02:07.355Z,24.50
2018-02-27T11:04:34.943Z,24.70
2018-02-27T11:07:02.490Z,24.40
2018-02-27T11:09:29.997Z,24.20
2018-02-27T11:11:58.346Z,23.20
2018-02-27T11:14:25.864Z,23.20
2018-02-27T11:16:53.385Z,22.40
2018-02-27T11:19:21.671Z,22.00
2018-02-27T11:21:50.012Z,21.10
2018-02-27T11:24:17.544Z,21.10
2018-02-27T11:26:45.061Z,20.20
2018-02-27T11:29:13.341Z,19.00
2018-02-27T11:31:41.619Z,20.20
2018-02-27T11:34:09.921Z,19.60
2018-02-27T11:36:37.446Z,19.60
2018-02-27T11:39:04.984Z,20.60
2018-02-27T11:41:32.494Z,20.30
2018-02-27T11:44:00.011Z,19.80
2018-02-27T11:46:27.552Z,18.70
2018-02-27T11:48:55.063Z,18.90
2018-02-27T11:51:22.569Z,19.20
2018-02-27T11:53:50.099Z,18.10
2018-02-27T11:56:17.668Z,20.20
2018-02-27T11:58:45.227Z,19.90
2018-02-27T12:01:12.740Z,20.20
2018-02-27T12:03:41.035Z,19.30
2018-02-27T12:06:08.567Z,19.30
2018-02-27T12:08:36.097Z,19.10
2018-02-27T12:11:03.664Z,18.50
2018-02-27T12:13:31.253Z,17.90
2018-02-27T12:15:59.596Z,17.00
2018-02-27T12:18:27.123Z,17.00
2018-02-27T12:20:54.642Z,18.20
2018-02-27T12:23:22.157Z,18.90
2018-02-27T12:25:49.670Z,19.30
2018-02-27T12:28:17.205Z,19.40
2018-02-27T12:30:45.504Z,18.80
2018-02-27T12:33:13.794Z,17.60
2018-02-27T12:35:42.078Z,18.70
2018-02-27T12:38:10.356Z,19.30
2018-02-27T12:40:38.612Z,19.90
2018-02-27T12:43:06.893Z,18.70
2018-02-27T12:45:35.187Z,18.30
2018-02-27T12:48:02.709Z,18.20
2018-02-27T12:50:30.199Z,18.20
2018-02-27T12:52:57.784Z,18.70
2018-02-27T12:55:25.325Z,18.90
2018-02-27T12:57:52.840Z,18.50
2018-02-27T13:00:20.392Z,18.50
2018-02-27T13:02:47.899Z,17.90
2018-02-27T13:05:15.444Z,18.10
2018-02-27T13:07:43.714Z,17.90
2018-02-27T13:10:11.232Z,17.80
2018-02-27T13:12:38.735Z,17.60
2018-02-27T13:15:06.247Z,18.30
2018-02-27T13:17:33.768Z,17.50
2018-02-27T13:20:02.035Z,17.30
2018-02-27T13:22:30.330Z,19.00
2018-02-27T13:24:57.841Z,18.90
2018-02-27T13:27:25.396Z,20.20
2018-02-27T13:29:52.923Z,20.70
2018-02-27T13:32:20.430Z,21.10
2018-02-27T13:34:47.954Z,22.50
2018-02-27T13:37:15.527Z,24.30
2018-02-27T13:39:43.022Z,25.50
2018-02-27T13:42:10.570Z,26.80
2018-02-27T13:44:38.089Z,28.00
2018-02-27T13:47:05.589Z,29.10
2018-02-27T13:49:33.116Z,29.30
2018-02-27T13:52:00.628Z,29.50
2018-02-27T13:54:28.904Z,29.70
2018-02-27T13:56:57.229Z,29.70
2018-02-27T13:59:24.795Z,29.70
2018-02-27T14:01:52.291Z,29.50
2018-02-27T14:04:19.777Z,30.10
2018-02-27T14:06:47.283Z,30.20
2018-02-27T14:09:14.796Z,30.00
2018-02-27T14:11:42.304Z,30.10
2018-02-27T14:14:09.807Z,30.00
2018-02-27T14:16:37.392Z,31.30
2018-02-27T14:19:04.908Z,32.00
2018-02-27T14:21:33.222Z,34.70
2018-02-27T14:24:00.805Z,34.10
2018-02-27T14:26:28.368Z,34.50
2018-02-27T14:28:55.975Z,34.60
2018-02-27T14:31:24.281Z,35.50
2018-02-27T14:33:51.806Z,35.50
2018-02-27T14:36:20.075Z,35.40
2018-02-27T14:38:48.976Z,35.40
2018-02-27T14:41:16.480Z,34.90
2018-02-27T14:43:43.992Z,34.70
2018-02-27T14:46:12.267Z,36.10
2018-02-27T14:48:39.832Z,35.50
2018-02-27T14:51:07.359Z,35.30
2018-02-27T14:53:34.885Z,35.60
2018-02-27T14:56:02.408Z,36.50
2018-02-27T14:58:29.926Z,36.80
2018-02-27T15:00:57.476Z,37.20
2018-02-27T15:03:25.018Z,37.30
2018-02-27T15:05:52.594Z,37.80
2018-02-27T15:08:20.167Z,37.90
2018-02-27T15:10:47.699Z,37.30
2018-02-27T15:13:15.265Z,37.00
2018-02-27T15:15:42.784Z,37.10
2018-02-27T15:18:11.146Z,37.70
2018-02-27T15:20:38.687Z,37.10
2018-02-27T15:23:06.964Z,37.10
2018-02-27T15:25:34.498Z,37.10
2018-02-27T15:28:02.052Z,36.80
2018-02-27T15:30:29.572Z,36.70
2018-02-27T15:32:57.107Z,37.30
2018-02-27T15:35:24.644Z,38.50
2018-02-27T15:37:52.186Z,39.80
2018-02-27T15:40:19.708Z,41.60
2018-02-27T15:42:47.235Z,42.40
2018-02-27T15:45:14.749Z,43.10
2018-02-27T15:47:43.191Z,43.00
2018-02-27T15:50:10.790Z,43.00
2018-02-27T15:52:38.942Z,42.70
2018-02-27T15:55:07.266Z,42.80
2018-02-27T15:57:34.816Z,42.70
2018-02-27T16:00:02.779Z,42.90
2018-02-27T16:02:31.061Z,43.90
2018-02-27T16:05:01.713Z,43.90
2018-02-27T16:07:29.232Z,44.90
2018-02-27T16:09:57.546Z,46.30
2018-02-27T16:12:25.099Z,46.20
2018-02-27T16:14:53.122Z,47.20
2018-02-27T16:17:20.667Z,47.90
2018-02-27T16:19:48.173Z,48.00
2018-02-27T16:22:15.717Z,48.00
2018-02-27T16:24:44.034Z,48.10
2018-02-27T16:27:11.555Z,48.10
2018-02-27T16:29:39.838Z,48.80
2018-02-27T16:32:08.133Z,48.70
2018-02-27T16:34:35.671Z,48.60
2018-02-27T16:37:03.473Z,48.60
2018-02-27T16:39:31.061Z,49.20
2018-02-27T16:41:58.594Z,49.40
2018-02-27T16:44:26.220Z,49.10
2018-02-27T16:46:56.069Z,48.50
2018-02-27T16:49:23.622Z,48.40
2018-02-27T16:51:51.141Z,48.20
2018-02-27T16:54:18.704Z,48.50
2018-02-27T16:56:46.235Z,49.10
2018-02-27T16:59:13.798Z,51.00
2018-02-27T17:01:41.317Z,53.00
2018-02-27T17:04:08.869Z,55.10
2018-02-27T17:06:36.577Z,57.40
2018-02-27T17:09:04.135Z,60.60
2018-02-27T17:11:31.700Z,65.00
2018-02-27T17:14:00.146Z,75.00
2018-02-27T17:16:27.686Z,75.00
2018-02-27T17:18:56.098Z,90.20
2018-02-27T17:21:23.644Z,90.20
2018-02-27T17:23:51.164Z,93.30
2018-02-27T17:26:18.721Z,94.20
2018-02-27T17:28:46.248Z,93.90
2018-02-27T17:31:13.812Z,93.40
2018-02-27T17:33:41.331Z,93.70
2018-02-27T17:36:08.868Z,93.70
2018-02-27T17:38:36.384Z,93.60
2018-02-27T17:41:03.910Z,93.80
2018-02-27T17:43:31.488Z,94.00
2018-02-27T17:45:59.023Z,94.20
2018-02-27T17:48:27.325Z,93.60
2018-02-27T17:50:56.283Z,93.60
2018-02-27T17:53:23.820Z,94.20
2018-02-27T17:55:51.361Z,94.40
2018-02-27T17:58:18.871Z,93.70
2018-02-27T18:00:46.419Z,93.90
2018-02-27T18:03:14.746Z,93.80
2018-02-27T18:05:42.322Z,93.80
2018-02-27T18:08:09.865Z,94.10
2018-02-27T18:10:37.426Z,94.30
2018-02-27T18:13:04.976Z,94.10
2018-02-27T18:15:32.515Z,94.30
2018-02-27T18:18:00.067Z,95.00
2018-02-27T18:20:27.613Z,95.40
2018-02-27T18:22:55.158Z,95.40
2018-02-27T18:25:42.892Z,95.10
2018-02-27T18:28:10.505Z,95.10
2018-02-27T18:30:38.023Z,94.80
2018-02-27T18:33:05.573Z,94.40
2018-02-27T18:35:33.101Z,93.70
2018-02-27T18:38:00.656Z,93.60
2018-02-27T18:40:29.231Z,93.50
2018-02-27T18:42:56.766Z,93.30
2018-02-27T18:45:25.090Z,94.00
2018-02-27T18:47:52.627Z,94.00
2018-02-27T18:50:20.172Z,93.70
2018-02-27T18:52:47.703Z,93.80
2018-02-27T18:55:15.305Z,94.60
2018-02-27T18:57:42.868Z,95.50
2018-02-27T19:00:10.406Z,95.80
2018-02-27T19:02:38.695Z,96.90
2018-02-27T19:05:06.235Z,97.00
2018-02-27T19:07:33.818Z,97.30
2018-02-27T19:10:01.355Z,98.20
2018-02-27T19:12:28.880Z,98.80
2018-02-27T19:14:56.419Z,99.40
2018-02-27T19:17:23.956Z,99.40
2018-02-27T19:19:51.542Z,99.50
2018-02-27T19:22:19.075Z,99.90
2018-02-27T19:24:46.616Z,99.90
2018-02-27T19:27:14.927Z,99.90
2018-02-27T19:29:42.472Z,99.90
2018-02-27T19:32:10.093Z,99.90
2018-02-27T19:34:37.618Z,99.90
2018-02-27T19:37:05.180Z,99.90
2018-02-27T19:39:32.775Z,99.90
2018-02-27T19:42:00.340Z,99.90
2018-02-27T19:44:28.009Z,99.90
2018-02-27T19:46:56.445Z,99.90
2018-02-27T19:49:23.968Z,99.90
2018-02-27T19:51:51.535Z,99.90
2018-02-27T19:54:19.043Z,99.90
2018-02-27T19:56:47.912Z,99.90
2018-02-27T19:59:15.467Z,99.90
2018-02-27T20:01:43.025Z,99.90
2018-02-27T20:04:10.565Z,99.90
2018-02-27T20:06:38.126Z,99.90
2018-02-27T20:09:05.661Z,99.90
2018-02-27T20:11:33.197Z,99.90
2018-02-27T20:14:00.790Z,99.90
2018-02-27T20:16:28.331Z,99.90
2018-02-27T20:18:55.964Z,99.90
2018-02-27T20:21:23.605Z,99.90
2018-02-27T20:23:56.895Z,99.90
2018-02-27T20:26:24.543Z,99.90
2018-02-27T20:28:57.700Z,99.90
2018-02-27T20:31:25.261Z,99.90
2018-02-27T20:33:52.959Z,99.90
2018-02-27T20:36:20.514Z,99.90
2018-02-27T20:38:54.459Z,98.00
2018-02-27T20:41:21.986Z,98.00
2018-02-27T20:43:49.522Z,96.60
2018-02-27T20:46:17.066Z,95.30
2018-02-27T20:48:44.604Z,93.40
2018-02-27T20:51:12.139Z,92.90
2018-02-27T20:53:39.667Z,90.60
2018-02-27T20:56:07.980Z,87.20
2018-02-27T20:58:35.533Z,87.10
2018-02-27T21:01:03.074Z,84.20
2018-02-27T21:03:31.396Z,82.60
2018-02-27T21:05:58.932Z,82.40
2018-02-27T21:08:26.519Z,81.70
2018-02-27T21:10:54.083Z,81.60
2018-02-27T21:13:21.622Z,81.80
2018-02-27T21:15:49.928Z,79.00
2018-02-27T21:18:17.509Z,78.00
2018-02-27T21:20:45.035Z,73.40
2018-02-27T21:23:12.611Z,71.20
2018-02-27T21:25:40.158Z,68.30
2018-02-27T21:28:07.720Z,67.60
2018-02-27T21:30:36.069Z,68.10
2018-02-27T21:33:03.667Z,68.10
2018-02-27T21:35:31.184Z,67.80
2018-02-27T21:37:58.700Z,69.10
2018-02-27T21:40:26.226Z,68.10
2018-02-27T21:42:53.772Z,67.40
2018-02-27T21:45:21.291Z,64.40
2018-02-27T21:47:48.828Z,63.90
2018-02-27T21:50:16.401Z,62.60
2018-02-27T21:52:44.709Z,62.70
2018-02-27T21:55:14.360Z,61.90
2018-02-27T21:57:43.060Z,61.90
2018-02-27T22:00:11.400Z,60.90
2018-02-27T22:02:39.017Z,59.80
2018-02-27T22:05:06.562Z,59.30
2018-02-27T22:07:34.261Z,58.80
2018-02-27T22:10:02.640Z,60.90
2018-02-27T22:12:30.169Z,60.00
2018-02-27T22:14:57.755Z,60.20
2018-02-27T22:17:25.363Z,60.00
2018-02-27T22:19:52.899Z,61.30
2018-02-27T22:22:20.490Z,61.00
2018-02-27T22:24:48.010Z,60.20
2018-02-27T22:27:15.556Z,61.20
2018-02-27T22:29:43.868Z,62.10
2018-02-27T22:32:11.405Z,62.10
2018-02-27T22:34:38.932Z,63.50
2018-02-27T22:37:06.461Z,63.80
2018-02-27T22:39:34.009Z,64.40
2018-02-27T22:42:01.582Z,64.60
2018-02-27T22:44:29.124Z,64.50
2018-02-27T22:46:56.659Z,64.70
2018-02-27T22:49:24.955Z,66.00
2018-02-27T22:51:52.481Z,65.90
2018-02-27T22:54:20.016Z,66.80
2018-02-27T22:56:48.556Z,66.20
2018-02-27T22:59:16.216Z,65.80
2018-02-27T23:01:43.792Z,65.70
2018-02-27T23:04:11.336Z,66.30
2018-02-27T23:06:38.931Z,66.60
2018-02-27T23:09:06.457Z,67.70
2018-02-27T23:11:33.994Z,68.30
2018-02-27T23:14:01.510Z,68.90
2018-02-27T23:16:29.063Z,69.60
2018-02-27T23:18:56.639Z,69.80
2018-02-27T23:21:24.200Z,69.80
2018-02-27T23:23:55.916Z,70.40
2018-02-27T23:26:32.856Z,71.40
2018-02-27T23:29:01.858Z,71.80
2018-02-27T23:31:30.939Z,72.00
2018-02-27T23:34:00.369Z,72.50
2018-02-27T23:36:28.679Z,72.20
2018-02-27T23:38:56.396Z,72.50
2018-02-27T23:41:23.910Z,73.40
2018-02-27T23:43:51.473Z,74.00
2018-02-27T23:46:19.026Z,74.00
2018-02-27T23:48:46.543Z,74.20
2018-02-27T23:51:14.842Z,76.40
2018-02-27T23:53:42.376Z,76.30
2018-02-27T23:56:10.677Z,77.70
2018-02-27T23:58:38.954Z,79.10
